createdAt,value
2023-04-27T00:00:35.561Z,13.49
2023-04-27T00:04:34.902Z,13.53
2023-04-27T00:08:33.438Z,13.57
2023-04-27T00:12:31.892Z,13.50
2023-04-27T00:16:29.634Z,13.48
2023-04-27T00:20:29.140Z,13.44
2023-04-27T00:24:26.393Z,13.40
2023-04-27T00:28:28.042Z,13.41
2023-04-27T00:32:24.066Z,13.39
2023-04-27T00:36:24.898Z,13.35
2023-04-27T00:40:20.449Z,13.33
2023-04-27T00:44:22.036Z,13.36
2023-04-27T00:48:17.748Z,13.32
2023-04-27T00:52:15.520Z,13.31
2023-04-27T00:56:06.552Z,13.27
2023-04-27T00:59:51.614Z,13.26
2023-04-27T01:03:37.346Z,13.23
2023-04-27T01:07:22.393Z,13.19
2023-04-27T01:11:07.356Z,13.12
2023-04-27T01:14:52.657Z,13.10
2023-04-27T01:18:37.401Z,13.03
2023-04-27T01:22:22.160Z,13.08
2023-04-27T01:26:07.437Z,13.12
2023-04-27T01:29:52.449Z,13.10
2023-04-27T01:33:37.033Z,13.02
2023-04-27T01:37:22.300Z,12.99
2023-04-27T01:41:09.051Z,12.99
2023-04-27T01:44:53.873Z,12.93
2023-04-27T01:48:38.327Z,12.84
2023-04-27T01:52:23.526Z,12.85
2023-04-27T01:56:08.384Z,12.84
2023-04-27T01:59:53.386Z,12.81
2023-04-27T02:03:40.624Z,12.75
2023-04-27T02:07:26.077Z,12.77
2023-04-27T02:11:11.071Z,12.84
2023-04-27T02:14:59.870Z,12.80
2023-04-27T02:18:46.069Z,12.75
2023-04-27T02:22:34.611Z,12.72
2023-04-27T02:26:21.497Z,12.68
2023-04-27T02:30:09.865Z,12.73
2023-04-27T02:33:56.889Z,12.83
2023-04-27T02:37:43.485Z,12.71
2023-04-27T02:46:07.162Z,12.60
2023-04-27T02:50:06.019Z,12.61
2023-04-27T02:54:08.137Z,12.63
2023-04-27T02:58:07.124Z,12.55
2023-04-27T03:02:08.684Z,12.42
2023-04-27T03:06:07.275Z,12.31
2023-04-27T03:10:08.029Z,12.19
2023-04-27T03:14:07.236Z,12.00
2023-04-27T03:18:09.423Z,11.85
2023-04-27T03:22:08.248Z,11.74
2023-04-27T03:26:05.871Z,11.68
2023-04-27T03:29:54.443Z,11.60
2023-04-27T03:33:41.555Z,11.49
2023-04-27T03:37:31.052Z,11.36
2023-04-27T03:41:19.501Z,11.26
2023-04-27T03:45:06.561Z,11.16
2023-04-27T03:48:53.772Z,11.10
2023-04-27T03:52:42.442Z,10.93
2023-04-27T03:56:28.955Z,10.81
2023-04-27T04:00:16.462Z,10.81
2023-04-27T04:04:05.004Z,10.78
2023-04-27T04:07:52.204Z,10.74
2023-04-27T04:11:39.157Z,10.70
2023-04-27T04:15:26.663Z,10.66
2023-04-27T04:19:15.480Z,10.62
2023-04-27T04:23:02.830Z,10.59
2023-04-27T04:26:50.289Z,10.59
2023-04-27T04:30:37.318Z,10.51
2023-04-27T04:34:22.195Z,10.45
2023-04-27T04:38:07.177Z,10.39
2023-04-27T04:41:51.854Z,10.32
2023-04-27T04:45:37.418Z,10.26
2023-04-27T04:49:22.524Z,10.30
2023-04-27T04:53:12.431Z,10.28
2023-04-27T04:57:14.410Z,10.26
2023-04-27T05:01:13.282Z,10.24
2023-04-27T05:05:16.266Z,10.24
2023-04-27T05:09:15.561Z,10.24
2023-04-27T05:13:19.293Z,10.23
2023-04-27T05:17:17.355Z,10.23
2023-04-27T05:21:18.376Z,10.19
2023-04-27T05:25:15.329Z,10.20
2023-04-27T05:29:16.931Z,10.24
2023-04-27T05:33:14.289Z,10.28
2023-04-27T05:37:15.453Z,10.41
2023-04-27T05:41:14.345Z,10.50
2023-04-27T05:45:15.847Z,10.50
2023-04-27T05:49:14.476Z,10.48
2023-04-27T05:53:15.767Z,10.43
2023-04-27T05:57:13.334Z,10.41
2023-04-27T06:01:14.950Z,10.44
2023-04-27T06:05:13.600Z,10.42
2023-04-27T06:09:11.150Z,10.40
2023-04-27T06:13:12.571Z,10.40
2023-04-27T06:17:10.148Z,10.43
2023-04-27T06:21:11.625Z,10.47
2023-04-27T06:25:34.890Z,10.35
2023-04-27T06:29:45.297Z,10.42
2023-04-27T06:33:49.165Z,10.43
2023-04-27T06:38:01.959Z,10.42
2023-04-27T06:42:17.399Z,10.46
2023-04-27T06:47:01.332Z,10.48
2023-04-27T06:50:54.750Z,10.52
2023-04-27T06:54:59.034Z,10.48
2023-04-27T06:59:08.530Z,10.58
2023-04-27T07:03:06.198Z,10.60
2023-04-27T07:07:07.030Z,10.67
2023-04-27T07:11:05.335Z,10.74
2023-04-27T07:15:05.995Z,10.77
2023-04-27T07:19:04.089Z,10.82
2023-04-27T07:23:05.756Z,10.85
2023-04-27T07:27:04.211Z,10.87
2023-04-27T07:31:05.647Z,10.86
2023-04-27T07:35:04.157Z,10.87
2023-04-27T07:39:02.015Z,10.90
2023-04-27T07:43:03.731Z,10.92
2023-04-27T07:47:01.238Z,10.91
2023-04-27T07:51:02.801Z,10.81
2023-04-27T07:54:58.196Z,10.87
2023-04-27T07:58:59.256Z,10.90
2023-04-27T08:02:57.323Z,10.99
2023-04-27T08:06:58.991Z,11.06
2023-04-27T08:10:58.284Z,11.15
2023-04-27T08:14:59.182Z,11.13
2023-04-27T08:18:57.486Z,11.08
2023-04-27T08:23:00.190Z,11.12
2023-04-27T08:26:58.169Z,11.14
2023-04-27T08:30:59.799Z,11.22
2023-04-27T08:34:57.352Z,11.15
2023-04-27T08:38:58.712Z,11.14
2023-04-27T08:42:56.198Z,11.16
2023-04-27T08:46:57.775Z,11.17
2023-04-27T08:50:58.480Z,11.32
2023-04-27T08:55:00.332Z,11.28
2023-04-27T10:20:32.066Z,8.14
2023-04-27T10:23:24.845Z,8.32
2023-04-27T10:26:12.920Z,8.49
2023-04-27T10:29:08.482Z,8.59
2023-04-27T10:31:55.970Z,8.75
2023-04-27T10:34:45.446Z,8.76
2023-04-27T10:37:41.446Z,8.78
2023-04-27T10:40:36.076Z,8.87
2023-04-27T10:43:27.729Z,8.87
2023-04-27T10:46:16.969Z,8.91
2023-04-27T10:49:05.114Z,8.95
2023-04-27T10:51:52.974Z,8.98
2023-04-27T10:54:45.732Z,9.03
2023-04-27T10:57:33.591Z,9.04
2023-04-27T11:00:28.813Z,9.01
2023-04-27T11:03:19.835Z,9.03
2023-04-27T11:06:07.719Z,9.03
2023-04-27T11:08:55.716Z,9.10
2023-04-27T11:11:45.857Z,9.17
2023-04-27T11:14:35.654Z,9.25
2023-04-27T11:17:30.187Z,9.25
2023-04-27T11:20:25.491Z,9.22
2023-04-27T11:23:29.091Z,9.27
2023-04-27T11:26:26.863Z,9.25
2023-04-27T11:29:16.624Z,9.28
2023-04-27T11:32:04.773Z,9.37
2023-04-27T11:34:57.188Z,9.59
2023-04-27T11:37:56.909Z,10.00
2023-04-27T11:40:46.816Z,10.85
2023-04-27T11:43:34.520Z,10.71
2023-04-27T11:46:22.734Z,10.78
2023-04-27T11:49:11.072Z,10.69
2023-04-27T11:51:59.130Z,10.59
2023-04-27T11:54:51.181Z,10.61
2023-04-27T11:57:39.312Z,10.97
2023-04-27T12:00:27.186Z,11.01
2023-04-27T12:03:15.252Z,10.99
2023-04-27T12:06:21.367Z,10.97
2023-04-27T12:09:11.831Z,10.91
2023-04-27T12:11:59.791Z,10.92
2023-04-27T12:14:47.842Z,10.92
2023-04-27T12:17:36.050Z,10.90
2023-04-27T12:20:24.080Z,10.88
2023-04-27T12:23:11.924Z,10.92
2023-04-27T12:25:59.748Z,10.96
2023-04-27T12:28:47.739Z,11.04
2023-04-27T12:31:35.736Z,11.17
2023-04-27T12:34:23.678Z,11.22
2023-04-27T12:37:12.096Z,11.30
2023-04-27T12:39:59.677Z,11.21
2023-04-27T12:42:47.584Z,11.17
2023-04-27T12:45:37.935Z,11.16
2023-04-27T12:48:32.178Z,11.13
2023-04-27T12:51:20.151Z,11.35
2023-04-27T12:54:08.985Z,11.34
2023-04-27T12:56:56.513Z,11.21
2023-04-27T12:59:44.355Z,11.19
2023-04-27T13:02:32.833Z,11.25
2023-04-27T13:05:22.149Z,11.43
2023-04-27T13:08:10.752Z,11.38
2023-04-27T13:10:58.786Z,11.32
2023-04-27T13:13:48.382Z,11.27
2023-04-27T13:16:36.680Z,11.17
2023-04-27T13:19:25.359Z,11.18
2023-04-27T13:22:13.607Z,11.13
2023-04-27T13:25:01.797Z,11.11
2023-04-27T13:27:50.354Z,11.18
2023-04-27T13:30:38.409Z,11.03
2023-04-27T13:33:26.503Z,10.83
2023-04-27T13:36:14.445Z,10.88
2023-04-27T13:39:02.916Z,11.01
2023-04-27T13:41:50.918Z,11.07
2023-04-27T13:44:38.993Z,11.08
2023-04-27T13:47:29.379Z,11.15
2023-04-27T13:50:17.332Z,11.14
2023-04-27T13:53:05.465Z,11.01
2023-04-27T13:56:01.940Z,11.09
2023-04-27T13:58:51.948Z,11.21
2023-04-27T14:01:40.194Z,11.16
2023-04-27T14:04:28.300Z,11.11
2023-04-27T14:07:16.306Z,11.08
2023-04-27T14:10:04.736Z,11.10
2023-04-27T14:12:52.587Z,10.88
2023-04-27T14:15:41.413Z,10.93
2023-04-27T14:18:32.445Z,11.02
2023-04-27T14:21:20.796Z,11.04
2023-04-27T14:24:08.772Z,10.97
2023-04-27T14:26:56.809Z,11.06
2023-04-27T14:29:45.126Z,11.14
2023-04-27T14:32:33.172Z,11.09
2023-04-27T14:35:21.254Z,11.20
2023-04-27T14:38:09.167Z,11.18
2023-04-27T14:40:57.122Z,11.28
2023-04-27T14:43:47.088Z,11.32
2023-04-27T14:46:35.302Z,11.36
2023-04-27T14:49:23.140Z,11.35
2023-04-27T14:52:11.490Z,11.28
2023-04-27T14:55:00.900Z,11.28
2023-04-27T14:57:48.689Z,11.20
2023-04-27T15:00:36.554Z,11.21
2023-04-27T15:03:25.134Z,11.27
2023-04-27T15:06:13.884Z,11.13
2023-04-27T15:09:01.841Z,11.17
2023-04-27T15:11:55.597Z,11.19
2023-04-27T15:14:50.183Z,11.25
2023-04-27T15:17:38.064Z,11.14
2023-04-27T15:20:26.057Z,11.13
2023-04-27T15:23:14.132Z,10.94
2023-04-27T15:26:02.222Z,10.90
2023-04-27T15:28:50.101Z,10.77
2023-04-27T15:31:38.107Z,10.65
2023-04-27T15:34:25.962Z,10.70
2023-04-27T15:37:13.851Z,10.66
2023-04-27T15:40:03.147Z,10.56
2023-04-27T15:42:51.108Z,10.67
2023-04-27T15:45:39.028Z,10.77
2023-04-27T15:48:26.835Z,10.88
2023-04-27T15:51:15.193Z,10.89
2023-04-27T15:54:03.397Z,10.74
2023-04-27T15:56:51.825Z,10.61
2023-04-27T15:59:39.449Z,10.70
2023-04-27T16:02:27.521Z,10.78
2023-04-27T16:05:16.646Z,10.75
2023-04-27T16:08:04.616Z,10.86
2023-04-27T16:10:52.730Z,10.93
2023-04-27T16:13:40.796Z,11.02
2023-04-27T16:16:28.745Z,10.94
2023-04-27T16:19:19.164Z,10.79
2023-04-27T16:22:06.796Z,10.75
2023-04-27T16:24:54.712Z,10.85
2023-04-27T16:27:43.651Z,10.84
2023-04-27T16:30:31.546Z,10.71
2023-04-27T16:33:21.225Z,10.65
2023-04-27T16:36:10.604Z,10.55
2023-04-27T16:38:58.359Z,10.73
2023-04-27T16:41:46.344Z,10.89
2023-04-27T16:44:34.230Z,10.72
2023-04-27T16:47:22.637Z,10.52
2023-04-27T16:50:11.027Z,10.73
2023-04-27T16:53:09.584Z,10.72
2023-04-27T16:55:59.458Z,10.78
2023-04-27T16:58:47.381Z,10.83
2023-04-27T17:01:35.596Z,10.81
2023-04-27T17:04:23.591Z,10.85
2023-04-27T17:07:11.840Z,10.92
2023-04-27T17:09:59.705Z,10.80
2023-04-27T17:12:47.566Z,10.85
2023-04-27T17:15:35.796Z,11.08
2023-04-27T17:18:23.668Z,11.17
2023-04-27T17:21:11.972Z,11.07
2023-04-27T17:23:59.786Z,11.09
2023-04-27T17:26:48.405Z,10.93
2023-04-27T17:29:37.455Z,10.85
2023-04-27T17:32:25.399Z,10.64
2023-04-27T17:35:13.308Z,10.78
2023-04-27T17:38:01.396Z,11.02
2023-04-27T17:40:49.465Z,10.88
2023-04-27T17:43:37.767Z,10.66
2023-04-27T17:46:25.863Z,10.66
2023-04-27T17:49:15.068Z,10.62
2023-04-27T17:52:03.263Z,10.67
2023-04-27T17:54:51.404Z,10.47
2023-04-27T17:57:40.878Z,10.50
2023-04-27T18:00:29.049Z,10.68
2023-04-27T18:03:17.114Z,10.78
2023-04-27T18:06:05.629Z,10.73
2023-04-27T18:08:53.520Z,10.52
2023-04-27T18:11:41.814Z,10.73
2023-04-27T18:14:29.714Z,10.90
2023-04-27T18:17:17.691Z,10.93
2023-04-27T18:20:09.567Z,10.98
2023-04-27T18:22:57.989Z,11.00
2023-04-27T18:25:45.897Z,10.94
2023-04-27T18:28:33.977Z,10.87
2023-04-27T18:31:23.885Z,10.93
2023-04-27T18:34:11.959Z,10.88
2023-04-27T18:36:59.873Z,10.87
2023-04-27T18:39:47.907Z,10.91
2023-04-27T18:42:35.985Z,10.84
2023-04-27T18:45:23.999Z,10.72
2023-04-27T18:48:11.897Z,10.68
2023-04-27T18:50:59.951Z,10.82
2023-04-27T18:53:47.900Z,10.68
2023-04-27T18:56:35.970Z,10.65
2023-04-27T18:59:24.039Z,10.36
2023-04-27T19:02:12.037Z,10.38
2023-04-27T19:05:11.388Z,10.22
2023-04-27T19:08:01.687Z,10.17
2023-04-27T19:10:51.321Z,10.18
2023-04-27T19:13:43.136Z,10.21
2023-04-27T19:16:31.148Z,10.06
2023-04-27T19:19:18.994Z,10.09
2023-04-27T19:22:08.350Z,10.05
2023-04-27T19:24:56.390Z,9.96
2023-04-27T19:27:44.423Z,10.11
2023-04-27T19:30:32.616Z,10.21
2023-04-27T19:33:21.506Z,10.26
2023-04-27T19:36:09.478Z,10.33
2023-04-27T19:38:57.398Z,10.51
2023-04-27T19:41:46.233Z,10.34
2023-04-27T19:44:34.076Z,10.24
2023-04-27T19:47:24.044Z,10.34
2023-04-27T19:50:12.641Z,10.25
2023-04-27T19:53:00.681Z,10.04
2023-04-27T19:55:48.655Z,10.18
2023-04-27T19:58:37.354Z,10.20
2023-04-27T20:01:25.785Z,10.12
2023-04-27T20:04:14.456Z,10.10
2023-04-27T20:07:04.336Z,9.87
2023-04-27T20:09:53.487Z,9.85
2023-04-27T20:12:55.393Z,9.93
2023-04-27T20:15:45.333Z,9.96
2023-04-27T20:18:33.377Z,10.15
2023-04-27T20:21:21.671Z,10.19
2023-04-27T20:24:09.656Z,10.09
2023-04-27T20:26:57.596Z,9.91
2023-04-27T20:29:47.360Z,9.97
2023-04-27T20:32:36.366Z,9.79
2023-04-27T20:35:24.431Z,9.85
2023-04-27T20:38:13.081Z,9.92
2023-04-27T20:41:01.228Z,9.80
2023-04-27T20:43:52.510Z,9.71
2023-04-27T20:46:40.883Z,9.69
2023-04-27T20:49:35.164Z,9.81
2023-04-27T20:52:23.609Z,9.86
2023-04-27T20:55:11.580Z,9.78
2023-04-27T20:57:59.558Z,9.83
2023-04-27T21:00:47.452Z,9.98
2023-04-27T21:03:35.774Z,10.27
2023-04-27T21:06:23.907Z,10.41
2023-04-27T21:09:11.802Z,10.14
2023-04-27T21:11:59.823Z,9.89
2023-04-27T21:14:47.574Z,9.84
2023-04-27T21:17:35.910Z,9.93
2023-04-27T21:20:23.916Z,9.87
2023-04-27T21:23:14.825Z,9.80
2023-04-27T21:26:02.886Z,9.97
2023-04-27T21:28:51.214Z,9.82
2023-04-27T21:31:39.167Z,9.85
2023-04-27T21:34:27.182Z,9.83
2023-04-27T21:37:15.198Z,9.83
2023-04-27T21:40:03.798Z,9.90
2023-04-27T21:42:54.556Z,10.00
2023-04-27T21:45:42.514Z,9.86
2023-04-27T21:48:30.628Z,10.05
2023-04-27T21:51:18.549Z,10.08
2023-04-27T21:54:06.725Z,10.01
2023-04-27T21:56:54.657Z,9.98
2023-04-27T21:59:42.242Z,10.14
2023-04-27T22:02:30.893Z,9.92
2023-04-27T22:05:21.096Z,9.91
2023-04-27T22:08:09.687Z,10.10
2023-04-27T22:10:57.496Z,9.95
2023-04-27T22:13:45.445Z,10.07
2023-04-27T22:16:33.379Z,10.19
2023-04-27T22:19:21.258Z,10.09
2023-04-27T22:22:10.082Z,9.93
2023-04-27T22:24:58.088Z,10.08
2023-04-27T22:27:46.164Z,9.83
2023-04-27T22:30:35.082Z,9.79
2023-04-27T22:33:22.927Z,9.89
2023-04-27T22:36:12.216Z,10.03
2023-04-27T22:38:59.990Z,10.10
2023-04-27T22:41:47.952Z,10.15
2023-04-27T22:44:36.073Z,10.03
2023-04-27T22:47:25.615Z,10.17
2023-04-27T22:50:13.807Z,10.59
2023-04-27T22:53:01.709Z,10.69
2023-04-27T22:55:49.706Z,10.71
2023-04-27T22:58:37.577Z,10.67
2023-04-27T23:01:25.722Z,10.61
2023-04-27T23:04:14.472Z,10.35
2023-04-27T23:07:02.408Z,10.45
2023-04-27T23:09:50.437Z,10.85
2023-04-27T23:12:38.851Z,10.74
2023-04-27T23:15:26.775Z,10.61
2023-04-27T23:18:14.696Z,10.40
2023-04-27T23:21:02.646Z,10.72
2023-04-27T23:23:50.943Z,10.94
2023-04-27T23:26:38.829Z,11.03
2023-04-27T23:29:26.684Z,10.79
2023-04-27T23:32:14.657Z,10.94
2023-04-27T23:35:02.534Z,10.87
2023-04-27T23:37:49.992Z,10.67
2023-04-27T23:40:37.947Z,10.55
2023-04-27T23:43:27.557Z,10.50
2023-04-27T23:46:15.380Z,10.75
2023-04-27T23:49:03.325Z,10.95
2023-04-27T23:51:52.489Z,10.81
2023-04-27T23:54:40.458Z,10.84
2023-04-27T23:57:28.395Z,10.90
